Terminal Aerodrome Forecast
Issued by NWS

Home | Current Version | Previous Version | Text Only | Print | Product List | Glossary On
Versions: 1 2 3 4 5 6 7 8 9 10 11 12
000
FTAK31 PAJN 071100
TAFAJN
TAF
PAJN 071125Z 0712/0812 VRB04KT P6SM SCT100 SCT250
     FM071800 24006KT P6SM SCT150
     FM072100 24010KT P6SM SCT050 BKN100
     FM080300 VRB04KT P6SM VCSH SCT025 BKN050
     FM081000 VRB03KT P6SM -RA SCT020 OVC040=

USA.gov is the U.S. government's official web portal to all federal, state and local government web resources and services.